sensor_id;sensor_type;location;lat;lon;timestamp;temperature;humidity
6496;DHT22;3281;47.658;9.166;2023-07-16T00:00:53;20.50;45.00
6496;DHT22;3281;47.658;9.166;2023-07-16T00:03:20;20.50;53.40
6496;DHT22;3281;47.658;9.166;2023-07-16T00:05:49;20.50;59.00
6496;DHT22;3281;47.658;9.166;2023-07-16T00:08:16;20.50;91.20
6496;DHT22;3281;47.658;9.166;2023-07-16T00:10:44;20.40;77.10
6496;DHT22;3281;47.658;9.166;2023-07-16T00:13:10;20.30;74.80
6496;DHT22;3281;47.658;9.166;2023-07-16T00:15:37;20.30;76.80
6496;DHT22;3281;47.658;9.166;2023-07-16T00:18:04;20.30;80.70
6496;DHT22;3281;47.658;9.166;2023-07-16T00:20:31;20.40;90.70
6496;DHT22;3281;47.658;9.166;2023-07-16T00:22:58;20.20;91.40
6496;DHT22;3281;47.658;9.166;2023-07-16T00:25:25;20.20;91.20
6496;DHT22;3281;47.658;9.166;2023-07-16T00:27:53;20.20;91.80
6496;DHT22;3281;47.658;9.166;2023-07-16T00:30:19;20.10;90.50
6496;DHT22;3281;47.658;9.166;2023-07-16T00:32:46;20.10;90.00
6496;DHT22;3281;47.658;9.166;2023-07-16T00:35:13;19.90;85.60
6496;DHT22;3281;47.658;9.166;2023-07-16T00:37:39;19.90;83.30
6496;DHT22;3281;47.658;9.166;2023-07-16T00:40:07;19.90;85.70
6496;DHT22;3281;47.658;9.166;2023-07-16T00:42:34;19.80;83.50
6496;DHT22;3281;47.658;9.166;2023-07-16T00:45:02;19.80;84.50
6496;DHT22;3281;47.658;9.166;2023-07-16T00:47:35;19.90;86.00
6496;DHT22;3281;47.658;9.166;2023-07-16T00:50:02;19.90;92.10
6496;DHT22;3281;47.658;9.166;2023-07-16T00:52:29;19.70;87.70
6496;DHT22;3281;47.658;9.166;2023-07-16T00:54:58;19.80;89.40
6496;DHT22;3281;47.658;9.166;2023-07-16T00:57:24;19.60;75.30
6496;DHT22;3281;47.658;9.166;2023-07-16T00:59:51;19.50;69.30
6496;DHT22;3281;47.658;9.166;2023-07-16T01:02:19;19.50;66.20
6496;DHT22;3281;47.658;9.166;2023-07-16T01:04:46;19.40;62.30
6496;DHT22;3281;47.658;9.166;2023-07-16T01:07:14;19.30;60.60
6496;DHT22;3281;47.658;9.166;2023-07-16T01:09:43;19.30;66.10
6496;DHT22;3281;47.658;9.166;2023-07-16T01:12:11;19.20;59.50
6496;DHT22;3281;47.658;9.166;2023-07-16T01:14:39;19.00;52.60
6496;DHT22;3281;47.658;9.166;2023-07-16T01:17:07;19.10;59.40
6496;DHT22;3281;47.658;9.166;2023-07-16T01:19:35;19.10;57.50
6496;DHT22;3281;47.658;9.166;2023-07-16T01:22:12;19.00;68.30
6496;DHT22;3281;47.658;9.166;2023-07-16T01:24:59;19.00;70.50
6496;DHT22;3281;47.658;9.166;2023-07-16T01:27:48;18.80;68.00
6496;DHT22;3281;47.658;9.166;2023-07-16T01:30:19;18.80;68.50
6496;DHT22;3281;47.658;9.166;2023-07-16T01:32:46;18.80;73.00
6496;DHT22;3281;47.658;9.166;2023-07-16T01:35:14;18.70;76.90
6496;DHT22;3281;47.658;9.166;2023-07-16T01:37:42;18.80;88.80
6496;DHT22;3281;47.658;9.166;2023-07-16T01:40:09;18.60;90.20
6496;DHT22;3281;47.658;9.166;2023-07-16T01:42:36;18.40;72.20
6496;DHT22;3281;47.658;9.166;2023-07-16T01:45:04;18.30;65.00
6496;DHT22;3281;47.658;9.166;2023-07-16T01:47:40;18.30;65.40
6496;DHT22;3281;47.658;9.166;2023-07-16T01:50:10;18.20;63.80
6496;DHT22;3281;47.658;9.166;2023-07-16T01:52:36;18.10;52.90
6496;DHT22;3281;47.658;9.166;2023-07-16T01:55:04;18.10;58.80
6496;DHT22;3281;47.658;9.166;2023-07-16T01:57:31;18.10;53.70
6496;DHT22;3281;47.658;9.166;2023-07-16T01:59:57;18.00;46.70
6496;DHT22;3281;47.658;9.166;2023-07-16T02:02:24;17.90;43.70
6496;DHT22;3281;47.658;9.166;2023-07-16T02:04:52;17.90;37.30
6496;DHT22;3281;47.658;9.166;2023-07-16T02:07:19;17.90;43.30
6496;DHT22;3281;47.658;9.166;2023-07-16T02:09:45;17.90;37.20
6496;DHT22;3281;47.658;9.166;2023-07-16T02:12:12;17.90;36.00
6496;DHT22;3281;47.658;9.166;2023-07-16T02:14:39;17.90;32.20
6496;DHT22;3281;47.658;9.166;2023-07-16T02:17:05;17.80;31.70
6496;DHT22;3281;47.658;9.166;2023-07-16T02:19:32;17.80;19.40
6496;DHT22;3281;47.658;9.166;2023-07-16T02:22:00;17.80;17.90
6496;DHT22;3281;47.658;9.166;2023-07-16T02:24:27;17.80;16.40
6496;DHT22;3281;47.658;9.166;2023-07-16T02:26:53;17.70;14.20
6496;DHT22;3281;47.658;9.166;2023-07-16T02:29:20;17.80;9.10
6496;DHT22;3281;47.658;9.166;2023-07-16T02:31:47;17.60;1.00
6496;DHT22;3281;47.658;9.166;2023-07-16T02:34:14;17.60;1.00
6496;DHT22;3281;47.658;9.166;2023-07-16T02:36:40;17.60;1.00
6496;DHT22;3281;47.658;9.166;2023-07-16T02:39:08;17.70;2.20
6496;DHT22;3281;47.658;9.166;2023-07-16T02:41:35;17.60;1.00
6496;DHT22;3281;47.658;9.166;2023-07-16T02:44:04;17.60;1.00
6496;DHT22;3281;47.658;9.166;2023-07-16T02:46:31;17.50;1.00
6496;DHT22;3281;47.658;9.166;2023-07-16T02:48:58;17.50;1.00
6496;DHT22;3281;47.658;9.166;2023-07-16T02:51:25;17.60;1.00
6496;DHT22;3281;47.658;9.166;2023-07-16T02:53:51;17.50;1.00
6496;DHT22;3281;47.658;9.166;2023-07-16T02:56:20;17.50;1.00
6496;DHT22;3281;47.658;9.166;2023-07-16T02:58:46;17.60;1.00
6496;DHT22;3281;47.658;9.166;2023-07-16T03:01:13;17.60;1.00
6496;DHT22;3281;47.658;9.166;2023-07-16T03:03:40;17.60;1.00
6496;DHT22;3281;47.658;9.166;2023-07-16T03:06:07;17.60;1.00
6496;DHT22;3281;47.658;9.166;2023-07-16T03:08:34;17.50;1.00
6496;DHT22;3281;47.658;9.166;2023-07-16T03:11:01;17.60;1.00
6496;DHT22;3281;47.658;9.166;2023-07-16T03:13:29;17.50;1.00
6496;DHT22;3281;47.658;9.166;2023-07-16T03:15:55;17.60;1.00
6496;DHT22;3281;47.658;9.166;2023-07-16T03:18:22;17.50;1.00
6496;DHT22;3281;47.658;9.166;2023-07-16T03:20:49;17.30;1.00
6496;DHT22;3281;47.658;9.166;2023-07-16T03:23:15;17.20;1.00
6496;DHT22;3281;47.658;9.166;2023-07-16T03:25:42;17.20;1.00
6496;DHT22;3281;47.658;9.166;2023-07-16T03:28:08;17.20;1.00
6496;DHT22;3281;47.658;9.166;2023-07-16T03:30:36;17.10;1.00
6496;DHT22;3281;47.658;9.166;2023-07-16T03:33:04;17.10;1.00
6496;DHT22;3281;47.658;9.166;2023-07-16T03:35:31;17.10;1.00
6496;DHT22;3281;47.658;9.166;2023-07-16T03:37:57;17.10;3.50
6496;DHT22;3281;47.658;9.166;2023-07-16T03:40:25;17.20;9.70
6496;DHT22;3281;47.658;9.166;2023-07-16T03:42:52;17.20;11.90
6496;DHT22;3281;47.658;9.166;2023-07-16T03:45:19;17.20;14.20
6496;DHT22;3281;47.658;9.166;2023-07-16T03:47:47;17.20;15.90
6496;DHT22;3281;47.658;9.166;2023-07-16T03:50:14;17.20;19.70
6496;DHT22;3281;47.658;9.166;2023-07-16T03:52:41;17.10;21.70
6496;DHT22;3281;47.658;9.166;2023-07-16T03:55:08;17.00;27.40
6496;DHT22;3281;47.658;9.166;2023-07-16T03:57:35;17.00;30.50
6496;DHT22;3281;47.658;9.166;2023-07-16T04:00:02;17.00;32.10
6496;DHT22;3281;47.658;9.166;2023-07-16T04:02:29;17.00;37.30
6496;DHT22;3281;47.658;9.166;2023-07-16T04:04:57;17.00;39.60
6496;DHT22;3281;47.658;9.166;2023-07-16T04:07:24;17.10;47.70
6496;DHT22;3281;47.658;9.166;2023-07-16T04:09:51;17.10;56.30
6496;DHT22;3281;47.658;9.166;2023-07-16T04:12:17;17.10;60.00
6496;DHT22;3281;47.658;9.166;2023-07-16T04:14:44;17.10;65.10
6496;DHT22;3281;47.658;9.166;2023-07-16T04:17:11;17.10;67.20
6496;DHT22;3281;47.658;9.166;2023-07-16T04:19:38;17.10;70.20
6496;DHT22;3281;47.658;9.166;2023-07-16T04:22:06;17.10;72.20
6496;DHT22;3281;47.658;9.166;2023-07-16T04:24:33;17.20;75.30
6496;DHT22;3281;47.658;9.166;2023-07-16T04:26:59;17.20;76.10
6496;DHT22;3281;47.658;9.166;2023-07-16T04:29:26;17.10;74.50
6496;DHT22;3281;47.658;9.166;2023-07-16T04:31:53;17.20;75.30
6496;DHT22;3281;47.658;9.166;2023-07-16T04:34:19;17.20;76.20
6496;DHT22;3281;47.658;9.166;2023-07-16T04:36:46;17.10;72.40
6496;DHT22;3281;47.658;9.166;2023-07-16T04:39:14;17.20;76.10
6496;DHT22;3281;47.658;9.166;2023-07-16T04:41:41;17.10;76.80
6496;DHT22;3281;47.658;9.166;2023-07-16T04:44:07;17.20;82.80
6496;DHT22;3281;47.658;9.166;2023-07-16T04:46:34;17.10;86.50
6496;DHT22;3281;47.658;9.166;2023-07-16T04:49:01;17.10;83.60
6496;DHT22;3281;47.658;9.166;2023-07-16T04:51:27;17.00;79.80
6496;DHT22;3281;47.658;9.166;2023-07-16T04:53:54;17.00;83.00
6496;DHT22;3281;47.658;9.166;2023-07-16T04:56:22;17.00;81.90
6496;DHT22;3281;47.658;9.166;2023-07-16T04:58:49;17.00;82.80
6496;DHT22;3281;47.658;9.166;2023-07-16T05:01:16;17.10;74.90
6496;DHT22;3281;47.658;9.166;2023-07-16T05:03:42;17.10;79.70
6496;DHT22;3281;47.658;9.166;2023-07-16T05:06:09;17.10;80.40
6496;DHT22;3281;47.658;9.166;2023-07-16T05:08:36;17.10;84.70
6496;DHT22;3281;47.658;9.166;2023-07-16T05:11:02;17.10;87.00
6496;DHT22;3281;47.658;9.166;2023-07-16T05:13:30;17.20;84.10
6496;DHT22;3281;47.658;9.166;2023-07-16T05:15:57;17.20;88.90
6496;DHT22;3281;47.658;9.166;2023-07-16T05:18:24;17.20;88.40
6496;DHT22;3281;47.658;9.166;2023-07-16T05:20:50;17.20;82.70
6496;DHT22;3281;47.658;9.166;2023-07-16T05:23:17;17.20;88.30
6496;DHT22;3281;47.658;9.166;2023-07-16T05:25:47;17.20;82.00
6496;DHT22;3281;47.658;9.166;2023-07-16T05:28:14;17.20;80.00
6496;DHT22;3281;47.658;9.166;2023-07-16T05:30:42;17.10;77.70
6496;DHT22;3281;47.658;9.166;2023-07-16T05:33:09;17.20;70.90
6496;DHT22;3281;47.658;9.166;2023-07-16T05:35:36;17.20;71.70
6496;DHT22;3281;47.658;9.166;2023-07-16T05:38:02;17.30;77.80
6496;DHT22;3281;47.658;9.166;2023-07-16T05:40:29;17.40;81.40
6496;DHT22;3281;47.658;9.166;2023-07-16T05:42:56;17.40;81.10
6496;DHT22;3281;47.658;9.166;2023-07-16T05:45:22;17.40;80.10
6496;DHT22;3281;47.658;9.166;2023-07-16T05:47:51;17.50;83.30
6496;DHT22;3281;47.658;9.166;2023-07-16T05:50:17;17.50;77.10
6496;DHT22;3281;47.658;9.166;2023-07-16T05:52:44;17.60;82.20
6496;DHT22;3281;47.658;9.166;2023-07-16T05:55:13;17.70;82.60
6496;DHT22;3281;47.658;9.166;2023-07-16T05:57:40;17.60;74.80
6496;DHT22;3281;47.658;9.166;2023-07-16T06:00:08;17.70;82.20
6496;DHT22;3281;47.658;9.166;2023-07-16T06:02:35;17.70;75.60
6496;DHT22;3281;47.658;9.166;2023-07-16T06:05:04;17.70;73.00
6496;DHT22;3281;47.658;9.166;2023-07-16T06:07:30;17.60;62.30
6496;DHT22;3281;47.658;9.166;2023-07-16T06:09:57;17.60;71.10
6496;DHT22;3281;47.658;9.166;2023-07-16T06:12:24;17.60;71.60
6496;DHT22;3281;47.658;9.166;2023-07-16T06:14:50;17.60;70.90
6496;DHT22;3281;47.658;9.166;2023-07-16T06:17:17;17.70;76.50
6496;DHT22;3281;47.658;9.166;2023-07-16T06:19:44;17.80;78.10
6496;DHT22;3281;47.658;9.166;2023-07-16T06:22:12;17.90;83.40
6496;DHT22;3281;47.658;9.166;2023-07-16T06:24:38;17.90;83.20
6496;DHT22;3281;47.658;9.166;2023-07-16T06:27:06;18.00;85.80
6496;DHT22;3281;47.658;9.166;2023-07-16T06:29:32;18.00;84.40
6496;DHT22;3281;47.658;9.166;2023-07-16T06:31:59;18.10;83.30
6496;DHT22;3281;47.658;9.166;2023-07-16T06:34:26;18.20;84.50
6496;DHT22;3281;47.658;9.166;2023-07-16T06:36:53;18.20;87.50
6496;DHT22;3281;47.658;9.166;2023-07-16T06:39:21;18.20;85.10
6496;DHT22;3281;47.658;9.166;2023-07-16T06:41:48;18.30;87.70
6496;DHT22;3281;47.658;9.166;2023-07-16T06:44:14;18.40;82.90
6496;DHT22;3281;47.658;9.166;2023-07-16T06:46:41;18.40;76.40
6496;DHT22;3281;47.658;9.166;2023-07-16T06:49:08;18.60;78.70
6496;DHT22;3281;47.658;9.166;2023-07-16T06:51:34;18.60;66.10
6496;DHT22;3281;47.658;9.166;2023-07-16T06:54:01;18.70;66.10
6496;DHT22;3281;47.658;9.166;2023-07-16T06:56:29;18.60;29.90
6496;DHT22;3281;47.658;9.166;2023-07-16T06:58:56;18.80;54.30
6496;DHT22;3281;47.658;9.166;2023-07-16T07:01:22;18.80;33.20
6496;DHT22;3281;47.658;9.166;2023-07-16T07:03:49;18.90;24.50
6496;DHT22;3281;47.658;9.166;2023-07-16T07:06:16;19.00;26.10
6496;DHT22;3281;47.658;9.166;2023-07-16T07:08:43;19.00;15.20
6496;DHT22;3281;47.658;9.166;2023-07-16T07:11:09;19.00;9.70
6496;DHT22;3281;47.658;9.166;2023-07-16T07:13:37;19.00;5.40
6496;DHT22;3281;47.658;9.166;2023-07-16T07:16:04;19.20;5.30
6496;DHT22;3281;47.658;9.166;2023-07-16T07:18:31;19.20;10.40
6496;DHT22;3281;47.658;9.166;2023-07-16T07:20:57;19.20;5.20
6496;DHT22;3281;47.658;9.166;2023-07-16T07:23:24;19.10;1.00
6496;DHT22;3281;47.658;9.166;2023-07-16T07:25:51;19.10;1.00
6496;DHT22;3281;47.658;9.166;2023-07-16T07:28:19;19.10;1.00
6496;DHT22;3281;47.658;9.166;2023-07-16T07:30:47;18.90;1.00
6496;DHT22;3281;47.658;9.166;2023-07-16T07:33:14;19.00;1.00
6496;DHT22;3281;47.658;9.166;2023-07-16T07:35:40;19.00;1.00
6496;DHT22;3281;47.658;9.166;2023-07-16T07:38:07;19.10;1.00
6496;DHT22;3281;47.658;9.166;2023-07-16T07:40:34;19.10;1.00
6496;DHT22;3281;47.658;9.166;2023-07-16T07:43:00;19.20;1.00
6496;DHT22;3281;47.658;9.166;2023-07-16T07:45:27;19.20;1.00
6496;DHT22;3281;47.658;9.166;2023-07-16T07:47:55;19.30;1.00
6496;DHT22;3281;47.658;9.166;2023-07-16T07:50:22;19.30;1.00
6496;DHT22;3281;47.658;9.166;2023-07-16T07:52:49;19.30;1.00
6496;DHT22;3281;47.658;9.166;2023-07-16T07:55:16;19.40;1.00
6496;DHT22;3281;47.658;9.166;2023-07-16T07:57:42;19.40;1.00
6496;DHT22;3281;47.658;9.166;2023-07-16T08:00:10;19.50;1.00
6496;DHT22;3281;47.658;9.166;2023-07-16T08:02:37;19.60;1.00
6496;DHT22;3281;47.658;9.166;2023-07-16T08:05:06;19.60;1.00
6496;DHT22;3281;47.658;9.166;2023-07-16T08:07:33;19.50;1.00
6496;DHT22;3281;47.658;9.166;2023-07-16T08:10:00;19.60;1.00
6496;DHT22;3281;47.658;9.166;2023-07-16T08:12:26;19.60;1.00
6496;DHT22;3281;47.658;9.166;2023-07-16T08:14:53;19.70;1.00
6496;DHT22;3281;47.658;9.166;2023-07-16T08:17:20;19.90;1.00
6496;DHT22;3281;47.658;9.166;2023-07-16T08:19:46;20.10;1.00
6496;DHT22;3281;47.658;9.166;2023-07-16T08:22:14;20.00;1.00
6496;DHT22;3281;47.658;9.166;2023-07-16T08:24:41;20.00;1.00
6496;DHT22;3281;47.658;9.166;2023-07-16T08:27:08;19.90;1.00
6496;DHT22;3281;47.658;9.166;2023-07-16T08:29:35;19.90;1.00
6496;DHT22;3281;47.658;9.166;2023-07-16T08:32:02;19.90;1.00
6496;DHT22;3281;47.658;9.166;2023-07-16T08:34:29;20.10;1.00
6496;DHT22;3281;47.658;9.166;2023-07-16T08:36:56;20.10;1.00
6496;DHT22;3281;47.658;9.166;2023-07-16T08:39:24;20.00;1.00
6496;DHT22;3281;47.658;9.166;2023-07-16T08:41:51;20.10;1.00
6496;DHT22;3281;47.658;9.166;2023-07-16T08:44:18;20.20;1.00
6496;DHT22;3281;47.658;9.166;2023-07-16T08:46:45;20.30;1.00
6496;DHT22;3281;47.658;9.166;2023-07-16T08:49:12;20.40;1.00
6496;DHT22;3281;47.658;9.166;2023-07-16T08:51:39;20.50;1.00
6496;DHT22;3281;47.658;9.166;2023-07-16T08:54:06;20.50;1.00
6496;DHT22;3281;47.658;9.166;2023-07-16T08:56:34;20.50;1.00
6496;DHT22;3281;47.658;9.166;2023-07-16T08:59:01;20.50;1.00
6496;DHT22;3281;47.658;9.166;2023-07-16T09:01:28;20.60;1.00
6496;DHT22;3281;47.658;9.166;2023-07-16T09:03:55;20.70;1.00
6496;DHT22;3281;47.658;9.166;2023-07-16T09:06:23;20.70;1.00
6496;DHT22;3281;47.658;9.166;2023-07-16T09:08:49;20.80;1.00
6496;DHT22;3281;47.658;9.166;2023-07-16T09:11:16;20.80;1.00
6496;DHT22;3281;47.658;9.166;2023-07-16T09:13:48;20.90;1.00
6496;DHT22;3281;47.658;9.166;2023-07-16T09:16:17;21.00;1.00
6496;DHT22;3281;47.658;9.166;2023-07-16T09:18:44;21.10;1.00
6496;DHT22;3281;47.658;9.166;2023-07-16T09:21:11;20.90;1.00
6496;DHT22;3281;47.658;9.166;2023-07-16T09:23:38;20.80;1.00
6496;DHT22;3281;47.658;9.166;2023-07-16T09:26:07;20.70;1.00
6496;DHT22;3281;47.658;9.166;2023-07-16T09:28:34;20.60;1.00
6496;DHT22;3281;47.658;9.166;2023-07-16T09:31:06;20.50;1.00
6496;DHT22;3281;47.658;9.166;2023-07-16T09:33:33;20.50;1.00
6496;DHT22;3281;47.658;9.166;2023-07-16T09:36:00;20.70;1.00
6496;DHT22;3281;47.658;9.166;2023-07-16T09:38:28;20.80;1.00
6496;DHT22;3281;47.658;9.166;2023-07-16T09:40:56;20.90;1.00
6496;DHT22;3281;47.658;9.166;2023-07-16T09:43:23;21.00;1.00
6496;DHT22;3281;47.658;9.166;2023-07-16T09:45:49;21.00;1.00
6496;DHT22;3281;47.658;9.166;2023-07-16T09:48:17;21.10;1.00
6496;DHT22;3281;47.658;9.166;2023-07-16T09:50:50;21.20;1.00
6496;DHT22;3281;47.658;9.166;2023-07-16T09:53:19;21.40;1.00
6496;DHT22;3281;47.658;9.166;2023-07-16T09:55:46;21.70;1.00
6496;DHT22;3281;47.658;9.166;2023-07-16T09:58:14;21.90;1.00
6496;DHT22;3281;47.658;9.166;2023-07-16T10:00:45;21.70;1.00
6496;DHT22;3281;47.658;9.166;2023-07-16T10:03:14;21.70;1.00
6496;DHT22;3281;47.658;9.166;2023-07-16T10:05:43;21.50;1.00
6496;DHT22;3281;47.658;9.166;2023-07-16T10:08:16;21.50;1.00
6496;DHT22;3281;47.658;9.166;2023-07-16T10:10:46;21.70;1.00
6496;DHT22;3281;47.658;9.166;2023-07-16T10:13:14;21.60;1.00
6496;DHT22;3281;47.658;9.166;2023-07-16T10:15:51;21.40;1.00
6496;DHT22;3281;47.658;9.166;2023-07-16T10:18:23;21.50;1.00
6496;DHT22;3281;47.658;9.166;2023-07-16T10:20:51;21.50;1.00
6496;DHT22;3281;47.658;9.166;2023-07-16T10:23:18;21.50;1.00
6496;DHT22;3281;47.658;9.166;2023-07-16T10:25:58;21.50;1.00
6496;DHT22;3281;47.658;9.166;2023-07-16T10:28:25;21.60;1.00
6496;DHT22;3281;47.658;9.166;2023-07-16T10:30:52;21.60;1.00
6496;DHT22;3281;47.658;9.166;2023-07-16T10:33:19;21.60;1.00
6496;DHT22;3281;47.658;9.166;2023-07-16T10:35:46;21.60;1.00
6496;DHT22;3281;47.658;9.166;2023-07-16T10:38:14;21.60;1.00
6496;DHT22;3281;47.658;9.166;2023-07-16T10:40:41;21.50;1.00
6496;DHT22;3281;47.658;9.166;2023-07-16T10:43:08;21.40;1.00
6496;DHT22;3281;47.658;9.166;2023-07-16T10:45:35;21.30;1.00
6496;DHT22;3281;47.658;9.166;2023-07-16T10:48:01;21.30;1.00
6496;DHT22;3281;47.658;9.166;2023-07-16T10:50:28;21.30;1.00
6496;DHT22;3281;47.658;9.166;2023-07-16T10:52:56;21.20;1.00
6496;DHT22;3281;47.658;9.166;2023-07-16T10:55:27;21.20;1.00
6496;DHT22;3281;47.658;9.166;2023-07-16T10:57:54;21.20;1.00
6496;DHT22;3281;47.658;9.166;2023-07-16T11:00:22;21.20;1.00
6496;DHT22;3281;47.658;9.166;2023-07-16T11:02:50;21.20;1.00
6496;DHT22;3281;47.658;9.166;2023-07-16T11:05:17;21.10;1.00
6496;DHT22;3281;47.658;9.166;2023-07-16T11:07:45;21.10;1.00
6496;DHT22;3281;47.658;9.166;2023-07-16T11:10:12;21.10;1.00
6496;DHT22;3281;47.658;9.166;2023-07-16T11:12:41;21.20;1.00
6496;DHT22;3281;47.658;9.166;2023-07-16T11:15:09;21.30;1.00
6496;DHT22;3281;47.658;9.166;2023-07-16T11:17:37;21.30;1.00
6496;DHT22;3281;47.658;9.166;2023-07-16T11:20:07;21.40;1.00
6496;DHT22;3281;47.658;9.166;2023-07-16T11:22:38;21.40;1.00
6496;DHT22;3281;47.658;9.166;2023-07-16T11:25:11;21.50;1.00
6496;DHT22;3281;47.658;9.166;2023-07-16T11:27:42;21.50;1.00
6496;DHT22;3281;47.658;9.166;2023-07-16T11:30:09;21.60;1.00
6496;DHT22;3281;47.658;9.166;2023-07-16T11:32:37;21.60;1.00
6496;DHT22;3281;47.658;9.166;2023-07-16T11:35:06;21.70;1.00
6496;DHT22;3281;47.658;9.166;2023-07-16T11:37:35;21.60;1.00
6496;DHT22;3281;47.658;9.166;2023-07-16T11:40:03;21.60;1.00
6496;DHT22;3281;47.658;9.166;2023-07-16T11:42:31;21.70;1.00
6496;DHT22;3281;47.658;9.166;2023-07-16T11:44:59;21.80;1.00
6496;DHT22;3281;47.658;9.166;2023-07-16T11:47:27;21.90;1.00
6496;DHT22;3281;47.658;9.166;2023-07-16T11:49:54;22.10;1.00
6496;DHT22;3281;47.658;9.166;2023-07-16T11:52:23;22.30;1.00
6496;DHT22;3281;47.658;9.166;2023-07-16T11:54:51;22.40;1.00
6496;DHT22;3281;47.658;9.166;2023-07-16T11:57:17;22.50;1.00
6496;DHT22;3281;47.658;9.166;2023-07-16T11:59:45;22.30;1.00
6496;DHT22;3281;47.658;9.166;2023-07-16T12:02:13;22.30;1.00
6496;DHT22;3281;47.658;9.166;2023-07-16T12:04:40;22.30;1.00
6496;DHT22;3281;47.658;9.166;2023-07-16T12:07:07;22.10;1.00
6496;DHT22;3281;47.658;9.166;2023-07-16T12:09:34;22.20;1.00
6496;DHT22;3281;47.658;9.166;2023-07-16T12:12:01;22.20;1.00
6496;DHT22;3281;47.658;9.166;2023-07-16T12:14:28;22.20;1.00
6496;DHT22;3281;47.658;9.166;2023-07-16T12:16:55;22.20;1.00
6496;DHT22;3281;47.658;9.166;2023-07-16T12:19:24;22.20;1.00
6496;DHT22;3281;47.658;9.166;2023-07-16T12:21:51;22.30;1.00
6496;DHT22;3281;47.658;9.166;2023-07-16T12:24:18;22.30;1.00
6496;DHT22;3281;47.658;9.166;2023-07-16T12:26:45;22.20;1.00
6496;DHT22;3281;47.658;9.166;2023-07-16T12:29:11;22.30;1.00
6496;DHT22;3281;47.658;9.166;2023-07-16T12:31:38;22.30;1.00
6496;DHT22;3281;47.658;9.166;2023-07-16T12:34:05;22.50;1.00
6496;DHT22;3281;47.658;9.166;2023-07-16T12:36:33;22.60;1.00
6496;DHT22;3281;47.658;9.166;2023-07-16T12:38:59;22.70;1.00
6496;DHT22;3281;47.658;9.166;2023-07-16T12:41:26;22.60;1.00
6496;DHT22;3281;47.658;9.166;2023-07-16T12:43:53;22.40;1.00
6496;DHT22;3281;47.658;9.166;2023-07-16T12:46:20;22.30;1.00
6496;DHT22;3281;47.658;9.166;2023-07-16T12:48:46;22.10;1.00
6496;DHT22;3281;47.658;9.166;2023-07-16T12:51:13;22.10;1.00
6496;DHT22;3281;47.658;9.166;2023-07-16T12:53:41;22.10;1.00
6496;DHT22;3281;47.658;9.166;2023-07-16T12:56:09;22.10;1.00
6496;DHT22;3281;47.658;9.166;2023-07-16T12:58:35;22.10;1.00
6496;DHT22;3281;47.658;9.166;2023-07-16T13:01:02;22.10;1.00
6496;DHT22;3281;47.658;9.166;2023-07-16T13:03:29;22.20;1.00
6496;DHT22;3281;47.658;9.166;2023-07-16T13:05:55;22.40;1.00
6496;DHT22;3281;47.658;9.166;2023-07-16T13:08:22;22.50;1.00
6496;DHT22;3281;47.658;9.166;2023-07-16T13:10:50;22.50;1.00
6496;DHT22;3281;47.658;9.166;2023-07-16T13:13:17;22.40;1.00
6496;DHT22;3281;47.658;9.166;2023-07-16T13:15:43;22.50;1.00
6496;DHT22;3281;47.658;9.166;2023-07-16T13:18:10;22.40;1.00
6496;DHT22;3281;47.658;9.166;2023-07-16T13:20:37;22.50;1.00
6496;DHT22;3281;47.658;9.166;2023-07-16T13:23:04;22.50;1.00
6496;DHT22;3281;47.658;9.166;2023-07-16T13:25:31;22.70;1.00
6496;DHT22;3281;47.658;9.166;2023-07-16T13:27:59;22.80;1.00
6496;DHT22;3281;47.658;9.166;2023-07-16T13:30:25;23.00;1.00
6496;DHT22;3281;47.658;9.166;2023-07-16T13:32:52;23.00;1.00
6496;DHT22;3281;47.658;9.166;2023-07-16T13:35:21;22.80;1.00
6496;DHT22;3281;47.658;9.166;2023-07-16T13:37:48;22.80;1.00
6496;DHT22;3281;47.658;9.166;2023-07-16T13:40:15;22.80;1.00
6496;DHT22;3281;47.658;9.166;2023-07-16T13:42:42;22.80;1.00
6496;DHT22;3281;47.658;9.166;2023-07-16T13:45:10;22.80;1.00
6496;DHT22;3281;47.658;9.166;2023-07-16T13:47:37;22.80;1.00
6496;DHT22;3281;47.658;9.166;2023-07-16T13:50:04;22.80;1.00
6496;DHT22;3281;47.658;9.166;2023-07-16T13:52:31;22.80;1.00
6496;DHT22;3281;47.658;9.166;2023-07-16T13:54:58;23.00;1.00
6496;DHT22;3281;47.658;9.166;2023-07-16T13:57:25;23.00;1.00
6496;DHT22;3281;47.658;9.166;2023-07-16T13:59:52;23.10;1.00
6496;DHT22;3281;47.658;9.166;2023-07-16T14:02:20;23.30;1.00
6496;DHT22;3281;47.658;9.166;2023-07-16T14:04:46;23.40;1.00
6496;DHT22;3281;47.658;9.166;2023-07-16T14:07:13;23.60;1.00
6496;DHT22;3281;47.658;9.166;2023-07-16T14:09:40;23.80;1.00
6496;DHT22;3281;47.658;9.166;2023-07-16T14:12:07;23.80;1.00
6496;DHT22;3281;47.658;9.166;2023-07-16T14:14:34;24.10;1.00
6496;DHT22;3281;47.658;9.166;2023-07-16T14:17:01;24.20;1.00
6496;DHT22;3281;47.658;9.166;2023-07-16T14:19:29;24.20;1.00
6496;DHT22;3281;47.658;9.166;2023-07-16T14:21:56;24.20;1.00
6496;DHT22;3281;47.658;9.166;2023-07-16T14:24:23;24.20;1.00
6496;DHT22;3281;47.658;9.166;2023-07-16T14:26:49;24.30;1.00
6496;DHT22;3281;47.658;9.166;2023-07-16T14:29:16;24.30;1.00
6496;DHT22;3281;47.658;9.166;2023-07-16T14:31:43;24.40;1.00
6496;DHT22;3281;47.658;9.166;2023-07-16T14:34:10;24.50;1.00
6496;DHT22;3281;47.658;9.166;2023-07-16T14:36:40;24.40;1.00
6496;DHT22;3281;47.658;9.166;2023-07-16T14:39:06;24.40;1.00
6496;DHT22;3281;47.658;9.166;2023-07-16T14:41:33;24.30;1.00
6496;DHT22;3281;47.658;9.166;2023-07-16T14:44:00;24.30;1.00
6496;DHT22;3281;47.658;9.166;2023-07-16T14:46:26;24.30;1.00
6496;DHT22;3281;47.658;9.166;2023-07-16T14:48:53;24.20;1.00
6496;DHT22;3281;47.658;9.166;2023-07-16T14:51:21;24.20;1.00
6496;DHT22;3281;47.658;9.166;2023-07-16T14:53:50;24.20;1.00
6496;DHT22;3281;47.658;9.166;2023-07-16T14:56:18;24.10;1.00
6496;DHT22;3281;47.658;9.166;2023-07-16T14:58:44;23.90;1.00
6496;DHT22;3281;47.658;9.166;2023-07-16T15:01:11;23.90;1.00
6496;DHT22;3281;47.658;9.166;2023-07-16T15:03:38;23.90;1.00
6496;DHT22;3281;47.658;9.166;2023-07-16T15:06:06;23.90;1.00
6496;DHT22;3281;47.658;9.166;2023-07-16T15:08:32;23.90;1.00
6496;DHT22;3281;47.658;9.166;2023-07-16T15:11:00;23.90;1.00
6496;DHT22;3281;47.658;9.166;2023-07-16T15:13:28;23.80;1.00
6496;DHT22;3281;47.658;9.166;2023-07-16T15:15:55;23.80;1.00
6496;DHT22;3281;47.658;9.166;2023-07-16T15:18:22;23.70;1.00
6496;DHT22;3281;47.658;9.166;2023-07-16T15:20:55;23.70;1.00
6496;DHT22;3281;47.658;9.166;2023-07-16T15:23:23;23.70;1.00
6496;DHT22;3281;47.658;9.166;2023-07-16T15:25:50;23.70;1.00
6496;DHT22;3281;47.658;9.166;2023-07-16T15:28:18;23.60;1.00
6496;DHT22;3281;47.658;9.166;2023-07-16T15:30:44;23.60;1.00
6496;DHT22;3281;47.658;9.166;2023-07-16T15:33:11;23.60;1.00
6496;DHT22;3281;47.658;9.166;2023-07-16T15:35:38;23.60;1.00
6496;DHT22;3281;47.658;9.166;2023-07-16T15:38:04;23.50;1.00
6496;DHT22;3281;47.658;9.166;2023-07-16T15:40:33;23.50;1.00
6496;DHT22;3281;47.658;9.166;2023-07-16T15:43:00;23.50;1.00
6496;DHT22;3281;47.658;9.166;2023-07-16T15:45:29;23.50;1.00
6496;DHT22;3281;47.658;9.166;2023-07-16T15:47:55;23.40;1.00
6496;DHT22;3281;47.658;9.166;2023-07-16T15:50:24;23.40;1.00
6496;DHT22;3281;47.658;9.166;2023-07-16T15:52:51;23.40;1.00
6496;DHT22;3281;47.658;9.166;2023-07-16T15:55:18;23.30;1.00
6496;DHT22;3281;47.658;9.166;2023-07-16T15:57:44;23.30;1.00
6496;DHT22;3281;47.658;9.166;2023-07-16T16:00:12;23.40;1.00
6496;DHT22;3281;47.658;9.166;2023-07-16T16:02:43;23.40;1.00
6496;DHT22;3281;47.658;9.166;2023-07-16T16:05:10;23.40;1.00
6496;DHT22;3281;47.658;9.166;2023-07-16T16:07:42;23.40;1.00
6496;DHT22;3281;47.658;9.166;2023-07-16T16:10:10;23.50;1.00
6496;DHT22;3281;47.658;9.166;2023-07-16T16:12:36;23.50;1.00